Time,TemperatureF,DewpointF,PressureIn,WindDirection,WindDirectionDegrees,WindSpeedMPH,WindSpeedGustMPH,Humidity,HourlyPrecipIn,Conditions,Clouds,dailyrainin,SoftwareType,DateUTC
2013-04-13 00:03:00,40.0,39.0,29.70,NNE,23,3.0,10.0,96,0.00,,,0.00,,2013-04-13 04:03:00,
2013-04-13 00:12:00,40.0,39.0,29.70,NNE,23,3.0,10.0,96,0.00,,,0.00,,2013-04-13 04:12:00,
2013-04-13 00:23:00,40.0,39.0,29.69,NNE,28,1.0,5.0,96,0.00,,,0.00,,2013-04-13 04:23:00,
2013-04-13 00:33:00,40.0,39.0,29.70,NNE,28,4.0,10.0,97,0.00,,,0.00,,2013-04-13 04:33:00,
2013-04-13 00:42:00,40.0,39.0,29.70,NNE,28,4.0,10.0,97,0.00,,,0.00,,2013-04-13 04:42:00,
2013-04-13 00:53:00,40.0,39.0,29.69,NNE,32,1.0,3.0,97,0.00,,,0.00,,2013-04-13 04:53:00,
2013-04-13 01:02:00,40.0,39.0,29.69,North,3,0.0,7.0,97,0.00,,,0.00,,2013-04-13 05:02:00,
2013-04-13 01:12:00,40.0,39.0,29.69,North,3,0.0,7.0,97,0.00,,,0.00,,2013-04-13 05:12:00,
2013-04-13 01:22:00,40.0,39.0,29.72,NNE,18,2.0,7.0,97,0.00,,,0.00,,2013-04-13 05:22:00,
2013-04-13 01:32:00,39.0,38.0,29.71,NNE,29,8.0,13.0,97,0.00,,,0.00,,2013-04-13 05:32:00,
2013-04-13 01:43:00,39.0,38.0,29.71,NNE,29,8.0,13.0,97,0.00,,,0.00,,2013-04-13 05:43:00,
2013-04-13 01:53:00,39.0,38.0,29.69,NE,37,4.0,9.0,97,0.00,,,0.00,,2013-04-13 05:53:00,
2013-04-13 02:02:00,39.0,38.0,29.70,NE,37,1.0,5.0,97,0.00,,,0.00,,2013-04-13 06:02:00,
2013-04-13 02:12:00,39.0,38.0,29.70,NE,37,1.0,5.0,97,0.00,,,0.00,,2013-04-13 06:12:00,
2013-04-13 02:24:00,39.0,38.0,29.71,NNE,18,1.0,6.0,97,0.00,,,0.00,,2013-04-13 06:24:00,
2013-04-13 02:35:00,39.0,38.0,29.72,NNE,21,2.0,8.0,95,0.00,,,0.00,,2013-04-13 06:35:00,
2013-04-13 02:55:00,39.0,38.0,29.72,NNE,21,1.0,6.0,95,0.00,,,0.00,,2013-04-13 06:55:00,
2013-04-13 03:05:00,39.0,37.0,29.72,NNE,16,1.0,7.0,94,0.00,,,0.00,,2013-04-13 07:05:00,
2013-04-13 03:24:00,39.0,37.0,29.72,NNE,16,0.0,3.0,94,0.00,,,0.00,,2013-04-13 07:24:00,
2013-04-13 03:35:00,39.0,37.0,29.73,North,10,2.0,6.0,94,0.00,,,0.00,,2013-04-13 07:35:00,
2013-04-13 03:45:00,39.0,37.0,29.73,North,10,2.0,6.0,94,0.00,,,0.00,,2013-04-13 07:45:00,
2013-04-13 03:57:00,39.0,37.0,29.74,North,3,1.0,6.0,94,0.00,,,0.00,,2013-04-13 07:57:00,
2013-04-13 04:06:00,39.0,37.0,29.75,North,357,5.0,12.0,93,0.00,,,0.00,,2013-04-13 08:06:00,
2013-04-13 04:15:00,39.0,37.0,29.75,North,357,5.0,12.0,93,0.00,,,0.00,,2013-04-13 08:15:00,
2013-04-13 04:25:00,39.0,37.0,29.77,North,0,1.0,7.0,92,0.00,,,0.00,,2013-04-13 08:25:00,
2013-04-13 04:35:00,39.0,37.0,29.77,North,0,1.0,0.0,92,0.00,,,0.00,,2013-04-13 08:35:00,
2013-04-13 04:45:00,39.0,37.0,29.77,North,0,1.0,0.0,92,0.00,,,0.00,,2013-04-13 08:45:00,
2013-04-13 04:54:00,39.0,37.0,29.77,North,0,1.0,0.0,92,0.00,,,0.00,,2013-04-13 08:54:00,
2013-04-13 05:05:00,39.0,37.0,29.77,North,0,1.0,0.0,92,0.00,,,0.00,,2013-04-13 09:05:00,
2013-04-13 05:14:00,39.0,37.0,29.77,North,0,1.0,0.0,92,0.00,,,0.00,,2013-04-13 09:14:00,
2013-04-13 05:24:00,39.0,37.0,29.77,North,0,1.0,0.0,92,0.00,,,0.00,,2013-04-13 09:24:00,
2013-04-13 05:36:00,39.0,37.0,29.77,North,0,1.0,0.0,92,0.00,,,0.00,,2013-04-13 09:36:00,
2013-04-13 05:54:00,39.0,37.0,29.77,North,0,1.0,0.0,92,0.00,,,0.00,,2013-04-13 09:54:00,
2013-04-13 06:05:00,39.0,37.0,29.77,North,0,1.0,0.0,92,0.00,,,0.00,,2013-04-13 10:05:00,
2013-04-13 06:15:00,39.0,37.0,29.77,North,0,1.0,0.0,92,0.00,,,0.00,,2013-04-13 10:15:00,
2013-04-13 06:24:00,39.0,37.0,29.77,North,0,1.0,0.0,92,0.00,,,0.00,,2013-04-13 10:24:00,
2013-04-13 06:37:00,39.0,37.0,29.77,North,0,1.0,0.0,92,0.00,,,0.00,,2013-04-13 10:37:00,
2013-04-13 06:46:00,39.0,37.0,29.77,North,0,1.0,0.0,92,0.00,,,0.00,,2013-04-13 10:46:00,
2013-04-13 06:55:00,39.0,37.0,29.77,North,0,1.0,0.0,92,0.00,,,0.00,,2013-04-13 10:55:00,
2013-04-13 07:06:00,39.0,37.0,29.77,North,0,1.0,0.0,92,0.00,,,0.00,,2013-04-13 11:06:00,
2013-04-13 07:13:00,39.0,37.0,29.77,North,0,1.0,0.0,92,0.00,,,0.00,,2013-04-13 11:13:00,
2013-04-13 07:24:00,39.0,37.0,29.77,North,0,1.0,0.0,92,0.00,,,0.00,,2013-04-13 11:24:00,
2013-04-13 07:34:00,39.0,37.0,29.77,North,0,1.0,0.0,92,0.00,,,0.00,,2013-04-13 11:34:00,
2013-04-13 07:45:00,39.0,37.0,29.77,North,0,1.0,0.0,92,0.00,,,0.00,,2013-04-13 11:45:00,
2013-04-13 07:54:00,39.0,37.0,29.77,North,0,1.0,0.0,92,0.00,,,0.00,,2013-04-13 11:54:00,
2013-04-13 08:08:00,39.0,37.0,29.77,North,0,1.0,0.0,92,0.00,,,0.00,,2013-04-13 12:08:00,
2013-04-13 08:15:00,39.0,37.0,29.77,North,0,1.0,0.0,92,0.00,,,0.00,,2013-04-13 12:15:00,
2013-04-13 08:25:00,39.0,37.0,29.77,North,0,1.0,0.0,92,0.00,,,0.00,,2013-04-13 12:25:00,
2013-04-13 08:35:00,39.0,37.0,29.77,North,0,1.0,0.0,92,0.00,,,0.00,,2013-04-13 12:35:00,
2013-04-13 08:47:00,39.0,37.0,29.77,North,0,1.0,0.0,92,0.00,,,0.00,,2013-04-13 12:47:00,
2013-04-13 08:55:00,43.0,37.0,29.83,North,4,0.0,1.0,80,0.00,,,0.00,,2013-04-13 12:55:00,
2013-04-13 09:06:00,44.0,37.0,29.83,North,4,0.0,2.0,77,0.00,,,0.00,,2013-04-13 13:06:00,
2013-04-13 09:15:00,44.0,37.0,29.83,North,4,0.0,2.0,77,0.00,,,0.00,,2013-04-13 13:15:00,
2013-04-13 09:29:00,45.0,38.0,29.83,North,4,0.0,0.0,75,0.00,,,0.00,,2013-04-13 13:29:00,
2013-04-13 09:34:00,46.0,38.0,29.84,North,4,0.0,1.0,73,0.00,,,0.00,,2013-04-13 13:34:00,
2013-04-13 09:47:00,46.0,38.0,29.84,North,4,0.0,1.0,73,0.00,,,0.00,,2013-04-13 13:47:00,
2013-04-13 10:05:00,46.0,37.0,29.84,North,4,0.0,1.0,70,0.00,,,0.00,,2013-04-13 14:05:00,
2013-04-13 10:14:00,46.0,37.0,29.84,North,4,0.0,1.0,70,0.00,,,0.00,,2013-04-13 14:14:00,
2013-04-13 10:46:00,50.0,38.0,29.85,North,4,1.0,3.0,63,0.00,,,0.00,,2013-04-13 14:46:00,
2013-04-13 11:00:00,49.0,36.0,29.86,NW,304,1.0,6.0,60,0.00,,,0.00,,2013-04-13 15:00:00,
2013-04-13 11:05:00,49.0,35.0,29.85,NW,308,1.0,6.0,59,0.00,,,0.00,,2013-04-13 15:05:00,
2013-04-13 11:14:00,49.0,35.0,29.85,NW,308,1.0,6.0,59,0.00,,,0.00,,2013-04-13 15:14:00,
2013-04-13 11:29:00,49.0,33.0,29.86,WNW,295,8.0,12.0,54,0.00,,,0.00,,2013-04-13 15:29:00,
2013-04-13 11:44:00,50.0,35.0,29.86,WNW,299,3.0,8.0,57,0.00,,,0.00,,2013-04-13 15:44:00,
2013-04-13 11:55:00,50.0,34.0,29.86,NNW,327,5.0,12.0,53,0.00,,,0.00,,2013-04-13 15:55:00,
2013-04-13 12:07:00,50.0,33.0,29.86,NNW,340,3.0,8.0,52,0.00,,,0.00,,2013-04-13 16:07:00,
2013-04-13 12:15:00,50.0,33.0,29.86,NNW,340,3.0,8.0,52,0.00,,,0.00,,2013-04-13 16:15:00,
2013-04-13 12:24:00,50.0,33.0,29.85,NNW,348,3.0,8.0,52,0.00,,,0.00,,2013-04-13 16:24:00,
2013-04-13 12:36:00,50.0,33.0,29.85,NW,305,5.0,10.0,51,0.00,,,0.00,,2013-04-13 16:36:00,
2013-04-13 12:45:00,50.0,33.0,29.85,NW,305,5.0,10.0,51,0.00,,,0.00,,2013-04-13 16:45:00,
2013-04-13 12:57:00,52.0,33.0,29.85,NW,319,5.0,9.0,49,0.00,,,0.00,,2013-04-13 16:57:00,
2013-04-13 13:07:00,52.0,34.0,29.84,NNW,346,2.0,6.0,50,0.00,,,0.00,,2013-04-13 17:07:00,
2013-04-13 13:21:00,52.0,34.0,29.84,NNW,346,2.0,6.0,50,0.00,,,0.00,,2013-04-13 17:21:00,
2013-04-13 13:37:00,52.0,34.0,29.84,NNW,330,3.0,6.0,50,0.00,,,0.00,,2013-04-13 17:37:00,
2013-04-13 13:44:00,52.0,34.0,29.84,NNW,330,3.0,6.0,50,0.00,,,0.00,,2013-04-13 17:44:00,
2013-04-13 13:58:00,53.0,34.0,29.83,NW,313,3.0,8.0,48,0.00,,,0.00,,2013-04-13 17:58:00,
2013-04-13 14:06:00,53.0,32.0,29.83,WNW,301,3.0,12.0,45,0.00,,,0.00,,2013-04-13 18:06:00,
2013-04-13 14:15:00,53.0,32.0,29.83,WNW,301,3.0,12.0,45,0.00,,,0.00,,2013-04-13 18:15:00,
2013-04-13 14:24:00,54.0,33.0,29.83,WNW,297,2.0,8.0,45,0.00,,,0.00,,2013-04-13 18:24:00,
2013-04-13 14:33:00,54.0,32.0,29.83,NW,306,2.0,8.0,43,0.00,,,0.00,,2013-04-13 18:33:00,
2013-04-13 14:42:00,54.0,32.0,29.83,NW,306,2.0,8.0,43,0.00,,,0.00,,2013-04-13 18:42:00,
2013-04-13 14:53:00,55.0,32.0,29.83,NW,315,1.0,8.0,42,0.00,,,0.00,,2013-04-13 18:53:00,
2013-04-13 15:03:00,55.0,33.0,29.83,WNW,284,3.0,10.0,43,0.00,,,0.00,,2013-04-13 19:03:00,
2013-04-13 15:12:00,55.0,33.0,29.83,WNW,284,3.0,10.0,43,0.00,,,0.00,,2013-04-13 19:12:00,
2013-04-13 15:22:00,56.0,32.0,29.82,WNW,288,1.0,5.0,40,0.00,,,0.00,,2013-04-13 19:22:00,
2013-04-13 15:32:00,56.0,33.0,29.82,NW,319,1.0,5.0,41,0.00,,,0.00,,2013-04-13 19:32:00,
2013-04-13 15:42:00,56.0,33.0,29.82,NW,319,1.0,5.0,41,0.00,,,0.00,,2013-04-13 19:42:00,
2013-04-13 15:53:00,55.0,31.0,29.82,NW,313,2.0,6.0,39,0.00,,,0.00,,2013-04-13 19:53:00,
2013-04-13 16:02:00,55.0,31.0,29.82,SW,215,3.0,12.0,40,0.00,,,0.00,,2013-04-13 20:02:00,
2013-04-13 16:12:00,55.0,31.0,29.82,SW,215,3.0,12.0,40,0.00,,,0.00,,2013-04-13 20:12:00,
2013-04-13 16:22:00,55.0,32.0,29.82,SW,224,2.0,13.0,42,0.00,,,0.00,,2013-04-13 20:22:00,
2013-04-13 16:32:00,55.0,32.0,29.82,WSW,251,2.0,7.0,41,0.00,,,0.00,,2013-04-13 20:32:00,
2013-04-13 16:42:00,55.0,32.0,29.82,WSW,251,2.0,7.0,41,0.00,,,0.00,,2013-04-13 20:42:00,
2013-04-13 16:52:00,55.0,33.0,29.81,SSW,210,6.0,12.0,44,0.00,,,0.00,,2013-04-13 20:52:00,
2013-04-13 17:02:00,55.0,33.0,29.81,SW,229,3.0,8.0,43,0.00,,,0.00,,2013-04-13 21:02:00,
2013-04-13 17:12:00,55.0,33.0,29.81,SW,229,3.0,8.0,43,0.00,,,0.00,,2013-04-13 21:12:00,
2013-04-13 17:22:00,55.0,34.0,29.82,SSW,213,3.0,10.0,45,0.00,,,0.00,,2013-04-13 21:22:00,
2013-04-13 17:33:00,54.0,34.0,29.82,SSW,206,3.0,6.0,47,0.00,,,0.00,,2013-04-13 21:33:00,
2013-04-13 17:43:00,54.0,34.0,29.82,SSW,206,3.0,6.0,47,0.00,,,0.00,,2013-04-13 21:43:00,
2013-04-13 17:53:00,53.0,34.0,29.83,SSW,212,4.0,8.0,49,0.00,,,0.00,,2013-04-13 21:53:00,
2013-04-13 18:03:00,53.0,36.0,29.83,SSW,200,3.0,8.0,52,0.00,,,0.00,,2013-04-13 22:03:00,
2013-04-13 18:13:00,53.0,36.0,29.83,SSW,200,3.0,8.0,52,0.00,,,0.00,,2013-04-13 22:13:00,
2013-04-13 18:22:00,52.0,36.0,29.84,SSW,200,3.0,10.0,54,0.00,,,0.00,,2013-04-13 22:22:00,
2013-04-13 18:33:00,51.0,38.0,29.84,South,188,6.0,10.0,60,0.00,,,0.00,,2013-04-13 22:33:00,
2013-04-13 18:42:00,51.0,38.0,29.84,South,188,6.0,10.0,60,0.00,,,0.00,,2013-04-13 22:42:00,
2013-04-13 18:53:00,50.0,39.0,29.83,SSW,199,3.0,12.0,66,0.00,,,0.00,,2013-04-13 22:53:00,
2013-04-13 19:02:00,50.0,39.0,29.85,SSW,210,3.0,10.0,66,0.00,,,0.00,,2013-04-13 23:02:00,
2013-04-13 19:12:00,49.0,38.0,29.85,SSW,210,2.0,10.0,66,0.00,,,0.00,,2013-04-13 23:12:00,
2013-04-13 19:22:00,49.0,38.0,29.85,SSW,210,2.0,10.0,66,0.00,,,0.00,,2013-04-13 23:22:00,
2013-04-13 19:32:00,48.0,37.0,29.86,SSW,208,6.0,10.0,65,0.00,,,0.00,,2013-04-13 23:32:00,
2013-04-13 19:42:00,48.0,37.0,29.86,SSW,208,6.0,10.0,65,0.00,,,0.00,,2013-04-13 23:42:00,
2013-04-13 19:52:00,48.0,37.0,29.86,SSW,200,0.0,8.0,66,0.00,,,0.00,,2013-04-13 23:52:00,
2013-04-13 20:03:00,48.0,37.0,29.86,SSW,203,3.0,8.0,66,0.00,,,0.00,,2013-04-14 00:03:00,
2013-04-13 20:12:00,48.0,37.0,29.86,SSW,203,3.0,8.0,66,0.00,,,0.00,,2013-04-14 00:12:00,
2013-04-13 20:22:00,47.0,36.0,29.87,SSW,206,5.0,10.0,66,0.00,,,0.00,,2013-04-14 00:22:00,
2013-04-13 20:32:00,47.0,37.0,29.87,SSW,205,0.0,8.0,67,0.00,,,0.00,,2013-04-14 00:32:00,
2013-04-13 20:42:00,47.0,37.0,29.87,SSW,205,0.0,8.0,67,0.00,,,0.00,,2013-04-14 00:42:00,
2013-04-13 20:52:00,47.0,37.0,29.88,SSW,205,2.0,6.0,68,0.00,,,0.00,,2013-04-14 00:52:00,
2013-04-13 21:02:00,47.0,37.0,29.88,SSW,205,2.0,5.0,69,0.00,,,0.00,,2013-04-14 01:02:00,
2013-04-13 21:12:00,47.0,37.0,29.88,SSW,205,2.0,5.0,69,0.00,,,0.00,,2013-04-14 01:12:00,
2013-04-13 21:22:00,46.0,37.0,29.89,SSW,205,0.0,3.0,70,0.00,,,0.00,,2013-04-14 01:22:00,
2013-04-13 21:32:00,46.0,37.0,29.90,SSW,205,0.0,3.0,71,0.00,,,0.00,,2013-04-14 01:32:00,
2013-04-13 21:42:00,46.0,37.0,29.90,SSW,205,0.0,3.0,71,0.00,,,0.00,,2013-04-14 01:42:00,
2013-04-13 21:53:00,46.0,38.0,29.90,SSW,205,0.0,0.0,73,0.00,,,0.00,,2013-04-14 01:53:00,
2013-04-13 22:02:00,46.0,38.0,29.91,SSW,205,0.0,1.0,74,0.00,,,0.00,,2013-04-14 02:02:00,
2013-04-13 22:12:00,46.0,38.0,29.91,SSW,205,1.0,6.0,74,0.00,,,0.00,,2013-04-14 02:12:00,
2013-04-13 22:22:00,46.0,38.0,29.91,SSW,205,1.0,6.0,74,0.00,,,0.00,,2013-04-14 02:22:00,
2013-04-13 22:32:00,46.0,39.0,29.91,SSW,205,1.0,3.0,76,0.00,,,0.00,,2013-04-14 02:32:00,
2013-04-13 22:42:00,46.0,39.0,29.91,SSW,205,1.0,3.0,76,0.00,,,0.00,,2013-04-14 02:42:00,
2013-04-13 22:53:00,46.0,39.0,29.92,SSW,205,1.0,3.0,76,0.00,,,0.00,,2013-04-14 02:53:00,
2013-04-13 23:02:00,46.0,40.0,29.93,SSW,205,0.0,0.0,79,0.00,,,0.00,,2013-04-14 03:02:00,
2013-04-13 23:12:00,46.0,40.0,29.93,SSW,205,0.0,0.0,79,0.00,,,0.00,,2013-04-14 03:12:00,
2013-04-13 23:22:00,46.0,41.0,29.93,SSW,205,2.0,3.0,81,0.00,,,0.00,,2013-04-14 03:22:00,
2013-04-13 23:33:00,46.0,41.0,29.93,SSW,205,1.0,3.0,82,0.00,,,0.00,,2013-04-14 03:33:00,
2013-04-13 23:42:00,46.0,41.0,29.93,SSW,205,1.0,3.0,82,0.00,,,0.00,,2013-04-14 03:42:00,
2013-04-13 23:53:00,46.0,41.0,29.93,SSW,205,0.0,2.0,84,0.00,,,0.00,,2013-04-14 03:53:00,